createdAt,value
2022-07-30T00:00:33.618Z,8.93
2022-07-30T00:03:00.923Z,8.80
2022-07-30T00:05:28.325Z,11.93
2022-07-30T00:07:55.654Z,8.63
2022-07-30T00:10:23.371Z,9.25
2022-07-30T00:12:50.787Z,10.43
2022-07-30T00:15:18.075Z,10.95
2022-07-30T00:17:46.623Z,8.38
2022-07-30T00:20:15.844Z,8.82
2022-07-30T00:22:43.514Z,9.23
2022-07-30T00:25:10.846Z,9.53
2022-07-30T00:27:38.180Z,12.63
2022-07-30T00:30:06.295Z,9.88
2022-07-30T00:32:33.683Z,8.85
2022-07-30T00:35:02.612Z,8.27
2022-07-30T00:37:30.000Z,9.07
2022-07-30T00:39:57.383Z,9.70
2022-07-30T00:42:27.179Z,8.35
2022-07-30T00:44:54.843Z,10.45
2022-07-30T00:47:22.151Z,8.48
2022-07-30T00:49:49.635Z,9.10
2022-07-30T00:52:17.077Z,8.57
2022-07-30T00:54:44.445Z,8.48
2022-07-30T00:57:11.761Z,10.35
2022-07-30T00:59:39.116Z,8.93
2022-07-30T01:02:06.422Z,9.00
2022-07-30T01:04:34.324Z,8.70
2022-07-30T01:07:02.038Z,9.98
2022-07-30T01:09:29.834Z,8.98
2022-07-30T01:11:57.142Z,9.90
2022-07-30T01:14:24.584Z,8.67
2022-07-30T01:16:52.190Z,10.98
2022-07-30T01:19:43.949Z,8.90
2022-07-30T01:22:41.827Z,10.55
2022-07-30T01:25:31.376Z,8.60
2022-07-30T01:28:01.038Z,9.13
2022-07-30T01:30:29.437Z,8.07
2022-07-30T01:32:57.413Z,9.13
2022-07-30T01:35:25.564Z,9.32
2022-07-30T01:37:53.734Z,8.45
2022-07-30T01:40:21.109Z,10.07
2022-07-30T01:42:50.505Z,7.90
2022-07-30T01:45:17.924Z,8.20
2022-07-30T01:47:45.365Z,8.38
2022-07-30T01:50:16.093Z,9.02
2022-07-30T01:52:43.979Z,11.23
2022-07-30T01:55:17.396Z,8.52
2022-07-30T01:57:45.931Z,9.27
2022-07-30T02:00:13.568Z,9.52
2022-07-30T02:02:49.599Z,9.10
2022-07-30T02:05:16.995Z,10.00
2022-07-30T02:08:02.882Z,8.15
2022-07-30T02:10:33.512Z,7.85
2022-07-30T02:13:03.849Z,8.23
2022-07-30T02:15:31.980Z,11.10
2022-07-30T02:18:02.236Z,10.37
2022-07-30T02:20:30.632Z,9.05
2022-07-30T02:23:03.414Z,9.80
2022-07-30T02:25:33.022Z,8.25
2022-07-30T02:28:03.336Z,8.20
2022-07-30T02:30:32.013Z,9.90
2022-07-30T02:33:06.012Z,9.73
2022-07-30T02:35:34.257Z,8.02
2022-07-30T02:38:01.699Z,9.38
2022-07-30T02:40:31.027Z,7.82
2022-07-30T02:42:59.860Z,7.53
2022-07-30T02:45:28.265Z,9.48
2022-07-30T02:47:59.120Z,7.80
2022-07-30T02:50:26.534Z,8.10
2022-07-30T02:52:54.933Z,10.93
2022-07-30T02:55:23.263Z,9.77
2022-07-30T02:57:50.880Z,7.70
2022-07-30T03:00:18.484Z,9.30
2022-07-30T03:02:45.782Z,10.25
2022-07-30T03:05:15.041Z,11.18
2022-07-30T03:07:42.334Z,8.30
2022-07-30T03:10:09.858Z,11.57
2022-07-30T03:12:37.394Z,9.77
2022-07-30T03:15:05.212Z,9.77
2022-07-30T03:17:35.953Z,9.85
2022-07-30T03:20:04.540Z,10.13
2022-07-30T03:22:33.227Z,7.95
2022-07-30T03:25:01.293Z,10.27
2022-07-30T03:27:28.600Z,9.82
2022-07-30T03:29:55.979Z,10.63
2022-07-30T03:32:26.072Z,10.47
2022-07-30T03:34:54.685Z,8.50
2022-07-30T03:37:25.246Z,10.70
2022-07-30T03:39:54.014Z,8.60
2022-07-30T03:42:21.849Z,9.05
2022-07-30T03:44:49.517Z,7.80
2022-07-30T03:47:16.851Z,10.30
2022-07-30T03:49:48.135Z,7.57
2022-07-30T03:52:16.973Z,9.02
2022-07-30T03:54:44.285Z,7.63
2022-07-30T03:57:20.560Z,6.87
2022-07-30T03:59:51.818Z,7.30
2022-07-30T04:02:21.088Z,7.30
2022-07-30T04:05:14.613Z,6.00
2022-07-30T04:07:45.285Z,7.35
2022-07-30T04:10:14.842Z,5.67
2022-07-30T04:13:09.698Z,7.93
2022-07-30T04:16:41.497Z,5.57
2022-07-30T04:18:53.952Z,7.60
2022-07-30T04:21:21.339Z,6.13
2022-07-30T04:24:04.060Z,5.90
2022-07-30T04:26:35.685Z,6.13
2022-07-30T04:29:05.787Z,6.78
2022-07-30T04:31:38.397Z,7.53
2022-07-30T04:34:28.663Z,6.70
2022-07-30T04:36:57.592Z,6.43
2022-07-30T04:39:25.745Z,7.07
2022-07-30T04:41:53.755Z,6.28
2022-07-30T04:44:35.622Z,5.78
2022-07-30T04:47:21.771Z,7.45
2022-07-30T04:50:05.805Z,6.40
2022-07-30T04:52:34.213Z,7.55
2022-07-30T04:55:07.014Z,8.73
2022-07-30T04:57:35.275Z,8.07
2022-07-30T05:00:03.752Z,8.52
2022-07-30T05:02:31.332Z,8.37
2022-07-30T05:04:58.868Z,7.68
2022-07-30T05:07:27.662Z,9.38
2022-07-30T05:09:55.019Z,9.90
2022-07-30T05:12:22.502Z,9.98
2022-07-30T05:14:50.143Z,8.37
2022-07-30T05:17:18.191Z,8.95
2022-07-30T05:19:45.565Z,8.35
2022-07-30T05:22:16.159Z,7.63
2022-07-30T05:24:44.515Z,7.60
2022-07-30T05:27:11.923Z,9.07
2022-07-30T05:29:39.291Z,9.05
2022-07-30T05:32:13.229Z,8.13
2022-07-30T05:34:43.311Z,8.65
2022-07-30T05:37:17.567Z,11.95
2022-07-30T05:39:58.844Z,8.50
2022-07-30T05:43:00.750Z,8.38
2022-07-30T05:45:28.766Z,8.52
2022-07-30T05:47:56.278Z,7.63
2022-07-30T05:50:23.765Z,8.80
2022-07-30T05:52:51.012Z,8.93
2022-07-30T05:55:36.780Z,8.48
2022-07-30T05:58:30.228Z,8.57
2022-07-30T06:00:57.922Z,7.65
2022-07-30T06:03:28.968Z,6.60
2022-07-30T06:06:20.983Z,6.57
2022-07-30T06:08:50.498Z,8.52
2022-07-30T06:11:18.125Z,6.55
2022-07-30T06:13:46.057Z,6.75
2022-07-30T06:16:13.631Z,7.30
2022-07-30T06:18:41.096Z,7.27
2022-07-30T06:21:16.829Z,6.72
2022-07-30T06:23:55.199Z,7.35
2022-07-30T06:26:31.053Z,5.63
2022-07-30T06:28:58.641Z,6.43
2022-07-30T06:31:31.097Z,6.00
2022-07-30T06:33:58.722Z,7.65
2022-07-30T06:36:29.312Z,7.97
2022-07-30T06:39:02.380Z,6.05
2022-07-30T06:41:50.179Z,6.65
2022-07-30T06:44:17.533Z,6.93
2022-07-30T06:47:07.790Z,6.30
2022-07-30T06:49:37.356Z,6.70
2022-07-30T06:52:06.181Z,6.28
2022-07-30T06:54:34.025Z,6.72
2022-07-30T06:57:16.666Z,7.10
2022-07-30T06:59:56.287Z,8.05
2022-07-30T07:02:33.436Z,7.53
2022-07-30T07:05:12.409Z,6.90
2022-07-30T07:07:49.058Z,12.52
2022-07-30T07:10:27.039Z,7.80
2022-07-30T07:13:20.384Z,6.78
2022-07-30T07:15:48.229Z,6.40
2022-07-30T07:18:19.688Z,5.97
2022-07-30T07:21:01.257Z,6.43
2022-07-30T07:23:41.501Z,7.10
2022-07-30T07:26:27.105Z,6.55
2022-07-30T07:28:54.615Z,7.10
2022-07-30T07:32:06.473Z,9.80
2022-07-30T07:34:13.211Z,7.55
2022-07-30T07:36:44.379Z,6.23
2022-07-30T07:39:13.114Z,7.25
2022-07-30T07:41:49.031Z,6.13
2022-07-30T07:44:20.810Z,7.43
2022-07-30T07:46:48.580Z,7.47
2022-07-30T07:49:16.068Z,6.17
2022-07-30T07:51:51.813Z,5.82
2022-07-30T07:54:22.570Z,6.70
2022-07-30T07:56:53.023Z,7.85
2022-07-30T07:59:36.134Z,5.65
2022-07-30T08:02:11.496Z,6.03
2022-07-30T08:04:39.055Z,6.32
2022-07-30T08:07:12.555Z,5.88
2022-07-30T08:10:00.396Z,6.65
2022-07-30T08:13:04.385Z,6.47
2022-07-30T08:16:12.110Z,5.83
2022-07-30T08:18:58.586Z,5.97
2022-07-30T08:21:48.735Z,6.07
2022-07-30T08:24:18.038Z,5.97
2022-07-30T08:26:45.619Z,6.20
2022-07-30T08:29:17.102Z,6.30
2022-07-30T08:31:45.854Z,5.72
2022-07-30T08:34:13.941Z,6.20
2022-07-30T08:36:41.781Z,7.60
2022-07-30T08:39:09.079Z,6.35
2022-07-30T08:41:36.856Z,6.17
2022-07-30T08:44:06.920Z,6.78
2022-07-30T08:46:41.562Z,5.15
2022-07-30T08:49:26.173Z,6.22
2022-07-30T08:51:53.622Z,4.57
2022-07-30T08:54:39.828Z,7.77
2022-07-30T08:57:09.264Z,5.90
2022-07-30T09:00:00.026Z,4.97
2022-07-30T09:02:29.458Z,6.30
2022-07-30T09:05:02.066Z,5.40
2022-07-30T09:07:29.601Z,5.13
2022-07-30T09:09:57.925Z,4.50
2022-07-30T09:12:43.210Z,5.45
2022-07-30T09:15:19.528Z,4.80
2022-07-30T09:17:49.876Z,5.53
2022-07-30T09:20:17.926Z,5.33
2022-07-30T09:22:50.345Z,4.90
2022-07-30T09:25:45.085Z,5.03
2022-07-30T09:28:52.000Z,9.70
2022-07-30T09:31:39.841Z,5.22
2022-07-30T09:34:37.974Z,5.37
2022-07-30T09:37:17.357Z,4.60
2022-07-30T09:39:59.919Z,5.28
2022-07-30T09:42:45.705Z,4.40
2022-07-30T09:45:15.320Z,5.45
2022-07-30T09:47:45.625Z,4.43
2022-07-30T09:50:29.668Z,6.60
2022-07-30T09:53:09.332Z,4.78
2022-07-30T09:55:41.457Z,5.43
2022-07-30T09:58:13.016Z,5.45
2022-07-30T10:00:59.555Z,5.30
2022-07-30T10:03:46.529Z,4.50
2022-07-30T10:06:34.444Z,5.50
2022-07-30T10:09:13.969Z,5.15
2022-07-30T10:11:47.500Z,5.07
2022-07-30T10:14:15.053Z,5.07
2022-07-30T10:16:42.989Z,5.50
2022-07-30T10:19:16.026Z,6.40
2022-07-30T10:22:06.425Z,5.30
2022-07-30T10:24:52.102Z,4.95
2022-07-30T10:27:20.378Z,3.83
2022-07-30T10:30:08.258Z,6.10
2022-07-30T10:32:42.391Z,4.47
2022-07-30T10:35:10.235Z,4.22
2022-07-30T10:37:39.439Z,5.47
2022-07-30T10:40:23.023Z,6.80
2022-07-30T10:42:50.959Z,5.00
2022-07-30T10:45:31.164Z,6.68
2022-07-30T10:47:59.656Z,5.88
2022-07-30T10:50:27.281Z,4.80
2022-07-30T10:53:03.680Z,4.87
2022-07-30T10:55:37.309Z,5.10
2022-07-30T10:58:17.944Z,5.20
2022-07-30T11:00:53.742Z,4.38
2022-07-30T11:03:41.144Z,5.03
2022-07-30T11:06:15.334Z,4.67
2022-07-30T11:08:43.527Z,5.13
2022-07-30T11:12:04.825Z,4.70
2022-07-30T11:14:45.187Z,5.03
2022-07-30T11:17:19.415Z,5.85
2022-07-30T11:20:05.506Z,4.80
2022-07-30T11:22:44.802Z,5.18
2022-07-30T11:25:51.414Z,3.53
2022-07-30T11:28:37.119Z,4.90
2022-07-30T11:31:37.089Z,4.22
2022-07-30T11:34:18.409Z,4.00
2022-07-30T11:37:18.942Z,4.53
2022-07-30T11:40:11.148Z,4.95
2022-07-30T11:42:39.858Z,5.30
2022-07-30T11:45:16.276Z,5.82
2022-07-30T11:47:48.394Z,4.53
2022-07-30T11:50:23.818Z,3.88
2022-07-30T11:52:52.589Z,4.75
2022-07-30T11:55:40.226Z,6.22
2022-07-30T11:58:23.445Z,4.25
2022-07-30T12:00:51.053Z,4.30
2022-07-30T12:03:20.057Z,4.10
2022-07-30T12:05:51.183Z,4.07
2022-07-30T12:08:36.131Z,3.97
2022-07-30T12:11:03.796Z,3.85
2022-07-30T12:13:45.132Z,4.77
2022-07-30T12:16:16.683Z,5.03
2022-07-30T12:18:44.550Z,4.38
2022-07-30T12:21:18.048Z,4.18
2022-07-30T12:24:00.762Z,3.67
2022-07-30T12:26:32.374Z,7.00
2022-07-30T12:29:01.809Z,4.78
2022-07-30T12:31:29.619Z,4.68
2022-07-30T12:33:58.878Z,4.18
2022-07-30T12:36:34.269Z,3.97
2022-07-30T12:39:02.647Z,3.53
2022-07-30T12:41:48.714Z,5.25
2022-07-30T12:44:35.254Z,5.30
2022-07-30T12:47:03.945Z,4.50
2022-07-30T12:49:39.467Z,4.82
2022-07-30T12:52:30.798Z,4.83
2022-07-30T12:55:02.099Z,4.88
2022-07-30T12:57:52.442Z,4.45
2022-07-30T13:00:20.065Z,4.05
2022-07-30T13:02:47.820Z,3.63
2022-07-30T13:05:15.110Z,4.10
2022-07-30T13:07:59.117Z,4.30
2022-07-30T13:10:31.198Z,4.32
2022-07-30T13:12:59.627Z,3.60
2022-07-30T13:15:26.985Z,4.82
2022-07-30T13:17:54.452Z,4.17
2022-07-30T13:20:22.115Z,4.63
2022-07-30T13:22:50.004Z,4.85
2022-07-30T13:25:18.165Z,3.70
2022-07-30T13:27:45.738Z,4.20
2022-07-30T13:30:13.822Z,5.17
2022-07-30T13:32:41.196Z,5.82
2022-07-30T13:35:08.999Z,6.22
2022-07-30T13:37:37.903Z,5.47
2022-07-30T13:40:07.044Z,4.15
2022-07-30T13:42:34.627Z,6.40
2022-07-30T13:45:02.192Z,5.10
2022-07-30T13:47:29.539Z,4.80
2022-07-30T13:49:57.188Z,5.38
2022-07-30T13:52:24.631Z,5.30
2022-07-30T13:54:53.808Z,5.70
2022-07-30T13:57:21.247Z,5.25
2022-07-30T13:59:48.515Z,6.53
2022-07-30T14:02:15.916Z,5.35
2022-07-30T14:04:43.368Z,6.47
2022-07-30T14:07:10.789Z,6.73
2022-07-30T14:09:44.832Z,5.70
2022-07-30T14:12:15.483Z,5.30
2022-07-30T14:14:43.315Z,4.95
2022-07-30T14:17:10.827Z,4.97
2022-07-30T14:19:38.205Z,4.93
2022-07-30T14:22:05.548Z,5.40
2022-07-30T14:24:33.374Z,5.70
2022-07-30T14:27:01.053Z,4.90
2022-07-30T14:29:28.650Z,5.93
2022-07-30T14:31:56.094Z,5.07
2022-07-30T14:34:23.510Z,4.32
2022-07-30T14:36:50.945Z,4.88
2022-07-30T14:39:18.324Z,5.32
2022-07-30T14:41:45.710Z,5.10
2022-07-30T14:44:14.869Z,5.83
2022-07-30T14:46:52.534Z,5.88
2022-07-30T14:49:21.796Z,5.07
2022-07-30T14:51:50.452Z,4.95
2022-07-30T14:54:18.172Z,4.90
2022-07-30T14:56:46.079Z,4.80
2022-07-30T14:59:13.468Z,5.35
2022-07-30T15:01:42.118Z,4.72
2022-07-30T15:04:10.637Z,6.00
2022-07-30T15:06:38.401Z,5.90
2022-07-30T15:09:05.706Z,5.40
2022-07-30T15:11:44.968Z,5.30
2022-07-30T15:14:20.601Z,4.70
2022-07-30T15:16:48.811Z,6.45
2022-07-30T15:19:16.193Z,5.60
2022-07-30T15:21:45.107Z,7.43
2022-07-30T15:24:12.418Z,6.82
2022-07-30T15:26:39.704Z,8.07
2022-07-30T15:29:11.604Z,5.18
2022-07-30T15:31:40.578Z,5.20
2022-07-30T15:34:12.699Z,5.53
2022-07-30T15:36:40.229Z,5.35
2022-07-30T15:39:08.062Z,4.75
2022-07-30T15:41:36.647Z,5.82
2022-07-30T15:44:04.263Z,5.63
2022-07-30T15:46:31.659Z,6.33
2022-07-30T15:48:59.377Z,6.55
2022-07-30T15:51:27.923Z,5.40
2022-07-30T15:53:55.446Z,4.60
2022-07-30T15:56:22.823Z,5.75
2022-07-30T15:58:50.121Z,6.27
2022-07-30T16:01:17.820Z,5.30
2022-07-30T16:03:45.318Z,5.00
2022-07-30T16:06:12.898Z,5.18
2022-07-30T16:08:40.205Z,5.60
2022-07-30T16:11:07.623Z,5.30
2022-07-30T16:13:38.555Z,5.63
2022-07-30T16:16:05.876Z,5.45
2022-07-30T16:18:33.264Z,5.80
2022-07-30T16:21:01.440Z,7.18
2022-07-30T16:23:36.406Z,7.17
2022-07-30T16:26:04.334Z,5.25
2022-07-30T16:28:31.999Z,6.72
2022-07-30T16:30:59.389Z,5.78
2022-07-30T16:33:26.796Z,6.10
2022-07-30T16:35:54.074Z,5.97
2022-07-30T16:38:23.280Z,5.30
2022-07-30T16:40:50.685Z,5.45
2022-07-30T16:43:19.850Z,6.47
2022-07-30T16:45:48.173Z,5.53
2022-07-30T16:48:15.583Z,6.73
2022-07-30T16:50:42.991Z,9.15
2022-07-30T16:53:13.815Z,6.10
2022-07-30T16:55:42.984Z,6.43
2022-07-30T16:58:11.043Z,6.35
2022-07-30T17:00:38.538Z,8.03
2022-07-30T17:03:06.135Z,6.22
2022-07-30T17:05:33.446Z,5.90
2022-07-30T17:08:00.839Z,6.38
2022-07-30T17:10:29.843Z,6.05
2022-07-30T17:12:57.474Z,4.97
2022-07-30T17:15:32.824Z,6.97
2022-07-30T17:18:01.872Z,9.73
2022-07-30T17:20:30.084Z,6.22
2022-07-30T17:22:57.554Z,5.70
2022-07-30T17:25:27.586Z,5.60
2022-07-30T17:27:56.039Z,5.75
2022-07-30T17:30:23.843Z,6.50
2022-07-30T17:32:52.025Z,6.28
2022-07-30T17:35:19.722Z,6.63
2022-07-30T17:37:47.393Z,6.87
2022-07-30T17:40:28.621Z,6.93
2022-07-30T17:43:04.679Z,5.10
2022-07-30T17:45:32.944Z,5.60
2022-07-30T17:48:01.838Z,6.68
2022-07-30T17:50:30.199Z,6.60
2022-07-30T17:52:57.526Z,6.05
2022-07-30T17:55:25.622Z,7.70
2022-07-30T17:57:52.962Z,8.18
2022-07-30T18:00:20.488Z,8.40
2022-07-30T18:02:47.765Z,6.40
2022-07-30T18:05:15.751Z,5.60
2022-07-30T18:07:43.536Z,6.95
2022-07-30T18:10:11.554Z,5.90
2022-07-30T18:12:39.098Z,8.07
2022-07-30T18:15:16.601Z,9.00
2022-07-30T18:17:43.911Z,7.07
2022-07-30T18:20:11.829Z,6.45
2022-07-30T18:22:40.288Z,6.18
2022-07-30T18:25:08.350Z,6.00
2022-07-30T18:27:47.425Z,6.53
2022-07-30T18:30:14.837Z,6.32
2022-07-30T18:32:42.355Z,6.22
2022-07-30T18:35:14.033Z,7.13
2022-07-30T18:37:43.361Z,6.25
2022-07-30T18:40:13.673Z,5.43
2022-07-30T18:42:40.954Z,5.18
2022-07-30T18:45:08.848Z,7.30
2022-07-30T18:47:36.240Z,6.53
2022-07-30T18:50:03.802Z,4.95
2022-07-30T18:52:31.804Z,8.30
2022-07-30T18:54:59.192Z,5.93
2022-07-30T18:57:26.493Z,6.55
2022-07-30T18:59:54.201Z,7.53
2022-07-30T19:02:25.572Z,6.00
2022-07-30T19:04:53.513Z,8.00
2022-07-30T19:07:21.125Z,5.80
2022-07-30T19:09:48.434Z,6.13
2022-07-30T19:12:15.830Z,7.45
2022-07-30T19:14:44.627Z,6.47
2022-07-30T19:17:13.895Z,6.23
2022-07-30T19:19:41.831Z,6.70
2022-07-30T19:22:09.349Z,8.23
2022-07-30T19:24:36.622Z,5.40
2022-07-30T19:27:04.439Z,5.57
2022-07-30T19:29:32.049Z,5.80
2022-07-30T19:31:59.632Z,5.90
2022-07-30T19:34:27.098Z,6.43
2022-07-30T19:36:54.403Z,7.88
2022-07-30T19:39:22.176Z,7.88
2022-07-30T19:41:50.947Z,9.03
2022-07-30T19:44:19.017Z,5.95
2022-07-30T19:46:46.884Z,7.28
2022-07-30T19:49:17.458Z,5.90
2022-07-30T19:52:07.276Z,6.88
2022-07-30T19:54:34.596Z,6.67
2022-07-30T19:57:04.737Z,5.88
2022-07-30T19:59:45.012Z,6.10
2022-07-30T20:02:19.562Z,5.65
2022-07-30T20:04:50.235Z,5.68
2022-07-30T20:07:17.539Z,6.43
2022-07-30T20:09:45.329Z,6.47
2022-07-30T20:12:16.067Z,6.15
2022-07-30T20:14:44.807Z,8.60
2022-07-30T20:17:12.414Z,7.20
2022-07-30T20:19:47.821Z,7.73
2022-07-30T20:22:16.397Z,8.50
2022-07-30T20:24:45.314Z,6.28
2022-07-30T20:27:36.062Z,5.80
2022-07-30T20:30:00.221Z,5.43
2022-07-30T20:32:29.486Z,5.13
2022-07-30T20:34:57.322Z,5.60
2022-07-30T20:37:27.560Z,6.43
2022-07-30T20:39:55.858Z,4.90
2022-07-30T20:42:24.252Z,6.38
2022-07-30T20:44:53.601Z,6.43
2022-07-30T20:47:37.420Z,6.68
2022-07-30T20:50:09.228Z,6.75
2022-07-30T20:52:46.580Z,5.78
2022-07-30T20:55:19.387Z,6.30
2022-07-30T20:57:58.761Z,6.07
2022-07-30T21:00:36.821Z,6.45
2022-07-30T21:03:05.756Z,6.03
2022-07-30T21:05:35.609Z,5.53
2022-07-30T21:08:03.217Z,6.32
2022-07-30T21:10:30.588Z,5.97
2022-07-30T21:12:58.601Z,6.80
2022-07-30T21:15:33.053Z,6.13
2022-07-30T21:18:01.553Z,6.38
2022-07-30T21:20:30.462Z,6.15
2022-07-30T21:23:10.060Z,6.13
2022-07-30T21:26:00.803Z,6.40
2022-07-30T21:28:28.372Z,6.80
2022-07-30T21:30:57.448Z,6.93
2022-07-30T21:33:26.969Z,7.13
2022-07-30T21:35:59.545Z,6.50
2022-07-30T21:38:28.543Z,9.02
2022-07-30T21:40:55.995Z,7.45
2022-07-30T21:43:29.413Z,7.43
2022-07-30T21:45:58.816Z,6.10
2022-07-30T21:48:26.736Z,7.57
2022-07-30T21:50:55.168Z,7.15
2022-07-30T21:53:29.945Z,7.03
2022-07-30T21:56:10.774Z,8.00
2022-07-30T21:58:39.540Z,6.63
2022-07-30T22:01:16.307Z,6.73
2022-07-30T22:04:01.742Z,8.55
2022-07-30T22:06:31.608Z,6.43
2022-07-30T22:09:02.954Z,6.63
2022-07-30T22:11:42.705Z,8.05
2022-07-30T22:14:12.617Z,6.30
2022-07-30T22:16:46.464Z,7.40
2022-07-30T22:19:15.072Z,7.07
2022-07-30T22:21:46.551Z,8.75
2022-07-30T22:24:28.707Z,7.03
2022-07-30T22:27:01.109Z,6.97
2022-07-30T22:29:34.024Z,6.85
2022-07-30T22:32:04.312Z,6.28
2022-07-30T22:34:32.628Z,5.90
2022-07-30T22:37:00.139Z,6.97
2022-07-30T22:39:32.003Z,6.17
2022-07-30T22:42:16.196Z,6.03
2022-07-30T22:44:46.008Z,6.30
2022-07-30T22:50:06.133Z,6.22
2022-07-30T22:52:39.402Z,6.10
2022-07-30T22:55:10.258Z,8.05
2022-07-30T22:57:38.354Z,5.55
2022-07-30T23:00:11.047Z,5.68
2022-07-30T23:02:42.539Z,6.97
2022-07-30T23:05:10.751Z,7.30
2022-07-30T23:07:40.419Z,6.82
2022-07-30T23:10:18.071Z,7.03
2022-07-30T23:12:30.469Z,6.55
2022-07-30T23:12:48.648Z,6.95
2022-07-30T23:15:16.481Z,7.28
2022-07-30T23:17:44.340Z,6.50
2022-07-30T23:20:16.849Z,6.30
2022-07-30T23:22:44.222Z,7.57
2022-07-30T23:25:11.900Z,6.50
2022-07-30T23:27:39.425Z,5.88
2022-07-30T23:30:08.068Z,6.53
2022-07-30T23:32:35.797Z,6.78
2022-07-30T23:35:03.087Z,6.22
2022-07-30T23:37:47.888Z,6.50
2022-07-30T23:40:17.674Z,7.57
2022-07-30T23:42:44.974Z,5.90
2022-07-30T23:45:12.480Z,5.65
2022-07-30T23:48:00.219Z,8.60
2022-07-30T23:50:27.616Z,5.50
2022-07-30T23:52:55.871Z,5.95
2022-07-30T23:55:23.334Z,6.40
2022-07-30T23:57:50.841Z,6.85
